KBBW/BBW METAR and TAF weather

Enter ICAO airport designator
Station Type Date Time Source
KBBW METAR 2019/11/18 03:53 UTC NOAA

KBBW 180353Z AUTO 25003KT 10SM CLR 06/M03 A2983 RMK AO2 SLP111 T00561033


Station Type Date Time Source
KBBW Decoded METAR 2019/11/18 03:53 UTC NOAA

BROKEN BOW MUNICIPAL AIRPORT, NE, United States (KBBW) 41-26N 099-38W
Nov 17, 2019 - 10:53 PM EST / 2019.11.18 0353 UTC
Wind: from the WSW (250 degrees) at 3 MPH (3 KT):0
Visibility: 10 mile(s):0
Sky conditions: clear
Temperature: 42.1 F (5.6 C)
Dew Point: 26.1 F (-3.3 C)
Relative Humidity: 52%
Pressure (altimeter): 29.83 in. Hg (1010 hPa)
ob: KBBW 180353Z AUTO 25003KT 10SM CLR 06/M03 A2983 RMK AO2 SLP111 T00561033
cycle: 4

Station Type Date Time Source
KBBW TAF UTC NOAA

Error!

Example: see airport list